Time;durP1;ratioP1;P1;durP2;ratioP2;P2;SDS_P1;SDS_P2;PMS_P1;PMS_P2;Temp;Humidity;BMP_temperature;BMP_pressure;BME280_temperature;BME280_humidity;BME280_pressure;Samples;Min_cycle;Max_cycle;Signal;HPM_P1;HPM_P2
2022/12/05 00:01:25;;;;;;;33.50;17.33;;;;;;;2.56;96.21;101925.16;6253609;22;20013;-78
2022/12/05 00:03:54;;;;;;;39.08;18.17;;;;;;;2.57;96.12;101914.31;6280659;22;20016;-77
2022/12/05 00:06:22;;;;;;;34.20;17.35;;;;;;;2.59;96.00;101934.97;6280875;22;20389;-78
2022/12/05 00:08:49;;;;;;;34.53;16.52;;;;;;;2.60;96.08;101924.09;6280076;22;20020;-77
2022/12/05 00:11:21;;;;;;;37.35;17.35;;;;;;;2.60;96.06;101923.34;6281053;22;20055;-78
2022/12/05 00:13:49;;;;;;;34.25;18.00;;;;;;;2.61;96.07;101920.38;6253251;22;20032;-77
2022/12/05 00:16:18;;;;;;;32.78;17.50;;;;;;;2.63;95.96;101917.38;6280823;22;20012;-77
2022/12/05 00:18:45;;;;;;;36.40;16.90;;;;;;;2.63;95.99;101922.66;6280176;22;20023;-78
2022/12/05 00:21:16;;;;;;;34.85;17.63;;;;;;;2.64;95.87;101919.66;6280790;22;20012;-78
2022/12/05 00:23:42;;;;;;;30.17;17.48;;;;;;;2.65;95.94;101915.91;6279633;22;20506;-77
2022/12/05 00:26:10;;;;;;;35.58;17.85;;;;;;;2.66;96.04;101920.06;6280868;22;20450;-75
2022/12/05 00:28:37;;;;;;;37.78;18.13;;;;;;;2.66;95.86;101924.56;6279715;22;20036;-75
2022/12/05 00:31:06;;;;;;;35.88;17.02;;;;;;;2.67;96.02;101923.44;6280454;22;20016;-77
2022/12/05 00:33:33;;;;;;;31.73;17.42;;;;;;;2.68;96.13;101922.34;6280117;22;20528;-76
2022/12/05 00:36:12;;;;;;;36.10;17.83;;;;;;;2.69;96.02;101918.59;6280704;22;20095;-76
2022/12/05 00:38:40;;;;;;;37.28;16.95;;;;;;;2.70;96.30;101917.47;6279642;22;20020;-76
2022/12/05 00:41:09;;;;;;;33.72;16.92;;;;;;;2.69;96.22;101915.97;6280911;22;20055;-76
2022/12/05 00:43:36;;;;;;;33.92;16.92;;;;;;;2.71;96.36;101919.00;6252453;22;20032;-76
2022/12/05 00:46:08;;;;;;;36.47;17.30;;;;;;;2.72;96.62;101914.50;6249670;22;20079;-76
2022/12/05 00:48:35;;;;;;;30.80;16.65;;;;;;;2.72;96.51;101925.00;6249298;22;20092;-75
2022/12/05 00:51:08;;;;;;;32.65;16.83;;;;;;;2.71;96.66;101919.00;6249662;22;20047;-75
2022/12/05 00:53:35;;;;;;;39.33;18.00;;;;;;;2.72;96.76;101920.50;6248662;22;20025;-75
2022/12/05 00:56:08;;;;;;;35.42;18.08;;;;;;;2.74;97.18;101920.16;6248149;22;20027;-76
2022/12/05 00:58:37;;;;;;;35.85;17.50;;;;;;;2.74;96.94;101914.91;6249222;22;20067;-75
2022/12/05 01:01:16;;;;;;;37.28;17.90;;;;;;;2.73;97.07;101922.03;6249874;22;20088;-76
2022/12/05 01:03:44;;;;;;;34.00;18.38;;;;;;;2.73;97.40;101913.38;6221885;22;20358;-75
2022/12/05 01:06:13;;;;;;;36.00;18.23;;;;;;;2.74;97.39;101923.53;6249655;22;20352;-75
2022/12/05 01:08:40;;;;;;;33.25;17.13;;;;;;;2.73;97.94;101919.41;6248812;22;20021;-76
2022/12/05 01:11:09;;;;;;;39.92;18.55;;;;;;;2.73;97.97;101918.63;6249541;22;20447;-75
2022/12/05 01:13:36;;;;;;;42.55;19.30;;;;;;;2.73;98.18;101916.78;6248992;22;20016;-75
2022/12/05 01:16:03;;;;;;;34.50;18.38;;;;;;;2.75;98.50;101913.78;6249572;22;20076;-75
2022/12/05 01:18:30;;;;;;;35.53;16.80;;;;;;;2.73;98.60;101914.13;6249046;22;20029;-75
2022/12/05 01:20:57;;;;;;;34.20;18.05;;;;;;;2.74;98.90;101926.19;6222294;22;20024;-75
2022/12/05 01:23:24;;;;;;;34.40;17.73;;;;;;;2.74;98.92;101920.91;6249332;22;20841;-74
2022/12/05 01:25:52;;;;;;;32.72;18.13;;;;;;;2.74;99.10;101923.53;6222542;22;20095;-75
2022/12/05 01:28:18;;;;;;;38.85;18.30;;;;;;;2.73;99.39;101924.66;6249682;22;20469;-75
2022/12/05 01:30:47;;;;;;;34.22;18.42;;;;;;;2.73;99.57;101922.03;6248773;22;20031;-75
2022/12/05 01:33:14;;;;;;;35.83;18.08;;;;;;;2.73;99.87;101916.78;6249731;22;20012;-75
2022/12/05 01:35:41;;;;;;;32.20;17.55;;;;;;;2.74;99.95;101917.53;6248214;22;20040;-75
2022/12/05 01:38:11;;;;;;;35.17;17.92;;;;;;;2.74;100.00;101926.19;6197199;22;20100;-75
2022/12/05 01:40:38;;;;;;;39.40;18.70;;;;;;;2.75;100.00;101929.56;6248848;22;20017;-75
2022/12/05 01:43:16;;;;;;;35.28;18.10;;;;;;;2.76;100.00;101928.44;6249613;22;20012;-75
2022/12/05 01:45:45;;;;;;;36.05;17.90;;;;;;;2.75;100.00;101922.44;6272824;22;20023;-75
2022/12/05 01:48:25;;;;;;;38.90;18.77;;;;;;;2.75;100.00;101930.31;6253142;22;20434;-74
2022/12/05 01:50:52;;;;;;;33.50;18.17;;;;;;;2.74;100.00;101926.19;6252075;22;20051;-75
2022/12/05 01:53:20;;;;;;;35.65;17.05;;;;;;;2.77;100.00;101932.59;6252641;22;20035;-75
2022/12/05 01:55:48;;;;;;;36.08;17.38;;;;;;;2.76;100.00;101937.09;6279463;22;20174;-75
2022/12/05 01:58:16;;;;;;;33.78;17.60;;;;;;;2.77;100.00;101935.22;6280140;22;20450;-75
2022/12/05 02:00:43;;;;;;;34.08;17.77;;;;;;;2.77;100.00;101932.59;6279411;22;20283;-74
2022/12/05 02:03:16;;;;;;;32.95;17.83;;;;;;;2.76;100.00;101931.84;6280030;22;20438;-74
2022/12/05 02:05:43;;;;;;;32.20;17.73;;;;;;;2.77;100.00;101932.59;6278587;22;20019;-75
2022/12/05 02:08:10;;;;;;;36.30;17.55;;;;;;;2.78;100.00;101926.22;6278253;22;20446;-74
2022/12/05 02:10:44;;;;;;;39.33;18.75;;;;;;;2.78;100.00;101931.47;6249942;22;20016;-75
2022/12/05 02:13:34;;;;;;;36.42;17.40;;;;;;;2.77;100.00;101929.97;6278567;22;20094;-74
2022/12/05 02:16:38;;;;;;;31.92;17.40;;;;;;;2.77;100.00;101922.06;6279966;22;20036;-75
2022/12/05 02:19:19;;;;;;;32.22;16.80;;;;;;;2.78;100.00;101924.34;6278146;22;20347;-74
2022/12/05 02:22:00;;;;;;;32.80;17.38;;;;;;;2.79;100.00;101925.88;6278860;22;20012;-74
2022/12/05 02:24:47;;;;;;;28.83;16.45;;;;;;;2.80;100.00;101924.72;6279637;22;20036;-74
2022/12/05 02:27:44;;;;;;;34.80;17.05;;;;;;;2.80;100.00;101924.00;6252691;22;20020;-74
2022/12/05 02:30:15;;;;;;;31.60;17.58;;;;;;;2.80;100.00;101916.84;6246344;22;20457;-74
2022/12/05 02:33:13;;;;;;;30.58;16.83;;;;;;;2.80;100.00;101919.47;6279157;22;20020;-74
2022/12/05 02:36:03;;;;;;;34.53;17.73;;;;;;;2.82;100.00;101922.50;6279180;22;20024;-74
2022/12/05 02:38:50;;;;;;;29.23;16.20;;;;;;;2.83;100.00;101920.63;6252059;22;20012;-74
2022/12/05 02:41:25;;;;;;;30.10;15.55;;;;;;;2.84;100.00;101917.63;6279868;22;20025;-74
2022/12/05 02:43:57;;;;;;;30.13;15.82;;;;;;;2.85;100.00;101924.41;6279036;22;20024;-74
2022/12/05 02:46:27;;;;;;;35.03;17.05;;;;;;;2.85;100.00;101927.03;6279315;22;20438;-74
2022/12/05 02:48:59;;;;;;;30.83;16.63;;;;;;;2.85;100.00;101919.16;6278556;22;20446;-74
2022/12/05 02:51:30;;;;;;;32.25;16.33;;;;;;;2.85;100.00;101921.78;6279116;22;20030;-74
2022/12/05 02:54:01;;;;;;;29.75;15.88;;;;;;;2.86;100.00;101918.03;6278905;22;20074;-74
2022/12/05 02:56:31;;;;;;;33.88;16.55;;;;;;;2.88;100.00;101917.69;6280682;22;20020;-74
2022/12/05 02:58:58;;;;;;;33.33;16.08;;;;;;;2.90;100.00;101923.34;6280752;22;20048;-74
2022/12/05 03:01:28;;;;;;;31.27;16.52;;;;;;;2.91;100.00;101916.97;6253436;22;20477;-74
2022/12/05 03:03:58;;;;;;;32.28;16.00;;;;;;;2.91;100.00;101912.47;6280067;22;20460;-74
2022/12/05 03:06:40;;;;;;;31.80;17.42;;;;;;;2.92;100.00;101919.25;6280591;22;20070;-74
2022/12/05 03:09:12;;;;;;;26.55;15.07;;;;;;;2.92;100.00;101919.25;6280976;22;20480;-75
2022/12/05 03:11:46;;;;;;;;;;;;;;;2.95;100.00;101915.13;6280982;22;20032;-74
2022/12/05 03:14:24;;;;;;;25.35;13.93;;;;;;;2.96;100.00;101919.28;6281195;22;20075;-74
2022/12/05 03:16:53;;;;;;;30.55;14.45;;;;;;;2.96;100.00;101925.31;6280043;22;20043;-74
2022/12/05 03:19:29;;;;;;;29.38;15.25;;;;;;;2.97;100.00;101920.81;6280757;22;20016;-74
2022/12/05 03:22:02;;;;;;;32.70;15.82;;;;;;;2.99;100.00;101926.47;6280539;22;20020;-74
2022/12/05 03:24:30;;;;;;;33.22;15.77;;;;;;;2.99;100.00;101923.84;6253364;22;20075;-75
2022/12/05 03:27:14;;;;;;;28.30;15.23;;;;;;;3.01;100.00;101929.50;6280941;22;20195;-75
2022/12/05 03:30:00;;;;;;;29.63;14.77;;;;;;;3.01;100.00;101921.59;6280161;22;20016;-74
2022/12/05 03:32:41;;;;;;;26.85;14.45;;;;;;;3.03;100.00;101926.50;6279748;22;20030;-74
2022/12/05 03:35:19;;;;;;;26.40;13.90;;;;;;;3.04;100.00;101933.28;6253603;22;20020;-74
2022/12/05 03:37:52;;;;;;;26.85;14.60;;;;;;;3.04;100.00;101934.03;6253154;22;20450;-74
2022/12/05 03:40:44;;;;;;;24.10;14.30;;;;;;;3.05;100.00;101938.19;6281006;22;20437;-75
2022/12/05 03:43:22;;;;;;;25.05;14.10;;;;;;;3.07;100.00;101935.22;6280919;22;20095;-74
2022/12/05 03:45:54;;;;;;;27.80;14.75;;;;;;;3.07;100.00;101940.47;6279548;22;20055;-74
2022/12/05 03:48:54;;;;;;;27.90;14.48;;;;;;;3.09;100.00;101943.50;6280915;22;20040;-74
2022/12/05 03:51:26;;;;;;;24.00;13.38;;;;;;;3.09;100.00;101938.25;6232867;22;20794;-75
2022/12/05 03:53:59;;;;;;;27.30;14.13;;;;;;;3.10;100.00;101945.78;6280525;22;20051;-75
2022/12/05 03:56:36;;;;;;;27.15;14.25;;;;;;;3.10;100.00;101943.13;6280728;22;20020;-75
2022/12/05 03:59:25;;;;;;;27.30;14.10;;;;;;;3.11;100.00;101943.91;6280695;22;20020;-74
2022/12/05 04:01:54;;;;;;;25.73;14.35;;;;;;;3.13;100.00;101949.56;6252704;22;20055;-74
2022/12/05 04:04:27;;;;;;;25.45;14.52;;;;;;;3.12;100.00;101945.41;6280006;22;20016;-74
2022/12/05 04:06:56;;;;;;;26.92;15.20;;;;;;;3.13;100.00;101942.44;6280508;22;20016;-75
2022/12/05 04:09:45;;;;;;;30.13;15.65;;;;;;;3.14;100.00;101956.34;6252876;22;20024;-74
2022/12/05 04:12:22;;;;;;;28.95;14.43;;;;;;;3.14;100.00;101953.72;6280543;22;20086;-74
2022/12/05 04:14:54;;;;;;;28.27;14.90;;;;;;;3.16;100.00;101954.09;6252910;22;20020;-74
2022/12/05 04:17:48;;;;;;;27.50;14.93;;;;;;;3.16;100.00;101948.84;6280902;22;20012;-74
2022/12/05 04:23:15;;;;;;;28.80;14.40;;;;;;;3.17;100.00;101950.38;6253268;22;20058;-73
2022/12/05 04:26:00;;;;;;;26.20;15.20;;;;;;;3.17;100.00;101953.00;6280026;22;20067;-74
2022/12/05 04:28:35;;;;;;;27.90;15.52;;;;;;;3.18;100.00;101946.63;6280271;22;20043;-74
2022/12/05 04:31:19;;;;;;;32.42;15.45;;;;;;;3.17;100.00;101948.50;6280010;22;20457;-74
2022/12/05 04:33:55;;;;;;;26.63;15.20;;;;;;;3.18;100.00;101943.97;6279876;22;20012;-74
2022/12/05 04:36:44;;;;;;;26.95;13.85;;;;;;;3.17;100.00;101945.09;6253682;22;20039;-74
2022/12/05 04:39:29;;;;;;;30.98;15.10;;;;;;;3.16;100.00;101944.34;6252696;22;20050;-73
2022/12/05 04:42:18;;;;;;;29.20;14.07;;;;;;;3.17;100.00;101950.38;6253698;22;20086;-74
2022/12/05 04:44:51;;;;;;;24.38;14.02;;;;;;;3.16;100.00;101936.44;6279074;22;20020;-73
2022/12/05 04:47:22;;;;;;;24.70;14.15;;;;;;;3.17;100.00;101939.84;6280453;22;20016;-74
2022/12/05 04:49:50;;;;;;;24.85;14.35;;;;;;;3.16;100.00;101940.94;6280454;22;20020;-74
2022/12/05 04:52:21;;;;;;;27.55;14.88;;;;;;;3.16;100.00;101944.34;6253211;22;20073;-74
2022/12/05 04:54:58;;;;;;;25.17;13.95;;;;;;;3.17;100.00;101934.56;6279740;22;20019;-73
2022/12/05 04:57:29;;;;;;;27.90;15.35;;;;;;;3.18;100.00;101944.75;6253302;22;20024;-74
2022/12/05 04:59:56;;;;;;;25.85;14.68;;;;;;;3.20;100.00;101947.00;6279977;22;20024;-74
2022/12/05 05:02:31;;;;;;;28.77;15.52;;;;;;;3.20;100.00;101950.38;6280203;22;20070;-74
2022/12/05 05:05:01;;;;;;;26.80;13.88;;;;;;;3.22;100.00;101947.38;6280362;22;20445;-74
2022/12/05 05:07:27;;;;;;;31.73;16.27;;;;;;;3.21;100.00;101938.72;6279921;22;20425;-74
2022/12/05 05:09:54;;;;;;;25.10;14.07;;;;;;;3.23;100.00;101947.03;6280264;22;20020;-75
2022/12/05 05:12:21;;;;;;;28.92;15.07;;;;;;;3.21;100.00;101936.09;6253158;22;20070;-75
2022/12/05 05:14:48;;;;;;;35.63;15.73;;;;;;;3.22;100.00;101939.50;6278715;22;20048;-75
2022/12/05 05:17:14;;;;;;;27.85;15.15;;;;;;;3.22;100.00;101945.50;6280251;22;20659;-75
2022/12/05 05:19:41;;;;;;;27.95;15.35;;;;;;;3.24;100.00;101947.78;6279525;22;20036;-75
2022/12/05 05:22:07;;;;;;;29.60;15.30;;;;;;;3.25;100.00;101949.31;6280208;22;20032;-75
2022/12/05 05:24:34;;;;;;;27.05;14.82;;;;;;;3.25;100.00;101949.31;6279413;22;20016;-75
2022/12/05 05:27:00;;;;;;;27.27;15.30;;;;;;;3.26;100.00;101948.19;6280245;22;20016;-75
2022/12/05 05:29:27;;;;;;;25.75;14.82;;;;;;;3.27;100.00;101950.47;6279361;22;20016;-76
2022/12/05 05:31:53;;;;;;;27.00;15.05;;;;;;;3.28;100.00;101951.22;6280714;22;20022;-76
2022/12/05 05:34:20;;;;;;;28.25;15.05;;;;;;;3.28;100.00;101949.34;6281177;22;20083;-76
2022/12/05 05:36:51;;;;;;;30.75;15.27;;;;;;;3.30;100.00;101952.38;6280417;22;20020;-78
2022/12/05 05:39:18;;;;;;;26.45;15.00;;;;;;;3.31;100.00;101953.91;6253813;22;20394;-74
2022/12/05 05:41:44;;;;;;;29.27;16.27;;;;;;;3.32;100.00;101946.75;6280107;22;20475;-74
2022/12/05 05:44:11;;;;;;;35.20;16.38;;;;;;;3.33;100.00;101953.53;6280330;22;20012;-76
2022/12/05 05:46:37;;;;;;;26.98;15.10;;;;;;;3.34;100.00;101953.19;6280520;22;20020;-77
2022/12/05 05:49:04;;;;;;;31.17;15.80;;;;;;;3.35;100.00;101949.44;6280829;22;20016;-76
2022/12/05 05:51:31;;;;;;;27.92;15.15;;;;;;;3.36;100.00;101950.19;6280517;22;20354;-76
2022/12/05 05:53:58;;;;;;;29.20;15.50;;;;;;;3.36;100.00;101944.91;6280524;22;20457;-74
2022/12/05 05:56:25;;;;;;;32.10;16.60;;;;;;;3.39;100.00;101949.47;6279785;22;20507;-75
2022/12/05 05:59:09;;;;;;;31.90;16.52;;;;;;;3.41;100.00;101947.22;6253719;22;20012;-77
2022/12/05 06:01:36;;;;;;;27.00;14.55;;;;;;;3.42;100.00;101942.72;6280384;22;20032;-77
2022/12/05 06:04:02;;;;;;;32.13;16.20;;;;;;;3.43;100.00;101946.88;6280572;22;20420;-76
2022/12/05 06:06:29;;;;;;;26.63;15.45;;;;;;;3.43;100.00;101950.25;6280354;22;20070;-76
2022/12/05 06:08:56;;;;;;;29.23;15.50;;;;;;;3.44;100.00;101946.50;6253159;22;20056;-77
2022/12/05 06:11:25;;;;;;;30.02;15.25;;;;;;;3.46;100.00;101946.16;6280170;22;20086;-76
2022/12/05 06:13:54;;;;;;;29.73;15.70;;;;;;;3.48;100.00;101946.56;6280616;22;20086;-77
2022/12/05 06:16:21;;;;;;;29.55;14.98;;;;;;;3.50;100.00;101942.44;6280624;22;20429;-77
2022/12/05 06:18:48;;;;;;;32.00;15.70;;;;;;;3.50;100.00;101942.44;6279994;22;20484;-77
2022/12/05 06:21:15;;;;;;;26.10;14.30;;;;;;;3.53;100.00;101952.25;6280643;22;20016;-75
2022/12/05 06:23:42;;;;;;;29.27;15.57;;;;;;;3.54;100.00;101940.59;6280340;22;20013;-75
2022/12/05 06:26:12;;;;;;;26.60;15.40;;;;;;;3.56;100.00;101946.25;6280252;22;20020;-75
2022/12/05 06:28:39;;;;;;;26.42;14.93;;;;;;;3.56;100.00;101954.16;6281076;22;20449;-75
2022/12/05 06:31:08;;;;;;;31.25;15.85;;;;;;;3.58;100.00;101951.16;6281895;22;20042;-75
2022/12/05 06:33:35;;;;;;;24.45;15.10;;;;;;;3.59;100.00;101955.31;6281223;22;20510;-75
2022/12/05 06:36:08;;;;;;;25.73;15.07;;;;;;;3.60;100.00;101949.66;6254764;22;20047;-75
2022/12/05 06:38:35;;;;;;;31.75;15.93;;;;;;;3.61;100.00;101955.69;6281544;22;20047;-75
2022/12/05 06:41:10;;;;;;;31.48;15.35;;;;;;;3.62;100.00;101950.06;6281511;22;20391;-75
2022/12/05 06:43:36;;;;;;;30.58;15.13;;;;;;;3.64;100.00;101953.09;6281347;22;20016;-75
2022/12/05 06:46:04;;;;;;;32.03;16.15;;;;;;;3.65;100.00;101951.22;6253949;22;20052;-75
2022/12/05 06:48:31;;;;;;;29.35;15.55;;;;;;;3.67;100.00;101965.53;6281171;22;20016;-75
2022/12/05 06:50:58;;;;;;;25.88;14.27;;;;;;;3.68;100.00;101958.41;6281590;22;20012;-76
2022/12/05 06:53:24;;;;;;;31.45;15.50;;;;;;;3.68;100.00;101969.69;6281094;22;20020;-75
2022/12/05 06:55:59;;;;;;;28.80;14.73;;;;;;;3.71;100.00;101967.44;6254113;22;20473;-74
2022/12/05 06:58:26;;;;;;;28.50;14.82;;;;;;;3.73;100.00;101971.25;6281077;22;20035;-74
2022/12/05 07:03:39;;;;;;;31.48;15.00;;;;;;;3.75;100.00;101976.16;6253942;22;20020;-73
2022/12/05 07:06:06;;;;;;;29.25;14.65;;;;;;;3.76;100.00;101975.03;6254531;22;20025;-78
2022/12/05 07:08:33;;;;;;;27.13;14.63;;;;;;;3.77;100.00;101981.81;6281083;22;20051;-75
2022/12/05 07:11:01;;;;;;;32.63;16.73;;;;;;;3.79;100.00;101982.22;6281015;22;20361;-75
2022/12/05 07:13:28;;;;;;;25.98;14.20;;;;;;;3.79;100.00;101977.69;6281088;22;20032;-77
2022/12/05 07:15:54;;;;;;;29.23;14.32;;;;;;;3.79;100.00;101975.06;6281553;22;20501;-75
2022/12/05 07:18:21;;;;;;;26.27;15.27;;;;;;;3.80;100.00;101973.94;6253991;22;20453;-79
2022/12/05 07:20:58;;;;;;;29.10;15.60;;;;;;;3.82;100.00;101968.31;6253681;22;20071;-78
2022/12/05 07:23:43;;;;;;;29.13;15.50;;;;;;;3.84;100.00;101982.63;6253223;22;20679;-77
2022/12/05 07:26:16;;;;;;;25.27;14.60;;;;;;;3.85;100.00;101981.53;6281607;22;20442;-77
2022/12/05 07:28:42;;;;;;;29.08;14.70;;;;;;;3.87;100.00;101989.06;6253756;22;20438;-76
2022/12/05 07:31:13;;;;;;;26.65;14.32;;;;;;;3.86;100.00;101993.56;6281821;22;20054;-77
2022/12/05 07:33:40;;;;;;;31.10;14.48;;;;;;;3.87;100.00;101989.81;6254120;22;20021;-76
2022/12/05 07:36:12;;;;;;;29.35;14.45;;;;;;;3.88;100.00;101995.84;6254267;22;20020;-78
2022/12/05 07:38:40;;;;;;;28.67;14.20;;;;;;;3.89;100.00;101997.34;6280353;22;20043;-78
2022/12/05 07:41:18;;;;;;;24.55;14.48;;;;;;;3.90;100.00;102004.16;6281587;22;20431;-78
2022/12/05 07:43:44;;;;;;;23.05;13.63;;;;;;;3.91;100.00;102003.78;6253777;22;20408;-78
2022/12/05 07:46:11;;;;;;;28.90;14.75;;;;;;;3.91;100.00;102001.16;6281432;22;20053;-78
2022/12/05 07:48:38;;;;;;;24.77;14.15;;;;;;;3.92;100.00;101999.28;6281198;22;20107;-78
2022/12/05 07:51:06;;;;;;;28.02;14.25;;;;;;;3.93;100.00;102003.41;6281588;22;20018;-79
2022/12/05 07:53:33;;;;;;;27.00;14.93;;;;;;;3.93;100.00;102006.06;6280327;22;20020;-76
2022/12/05 07:56:01;;;;;;;27.65;13.60;;;;;;;3.95;100.00;102012.47;6281884;22;20024;-79
2022/12/05 07:58:28;;;;;;;33.50;13.73;;;;;;;3.95;100.00;102015.13;6281259;22;20020;-77
2022/12/05 08:00:55;;;;;;;24.88;13.85;;;;;;;3.96;100.00;102016.63;6256635;22;20084;-78
2022/12/05 08:03:22;;;;;;;23.33;14.05;;;;;;;3.98;100.00;102018.91;6254019;22;20043;-77
2022/12/05 08:05:49;;;;;;;26.05;14.23;;;;;;;4.00;100.00;102019.28;6254158;22;20032;-77
2022/12/05 08:08:15;;;;;;;23.45;13.60;;;;;;;4.02;100.00;102017.03;6281096;22;20450;-77
2022/12/05 08:10:42;;;;;;;21.33;12.85;;;;;;;4.02;100.00;102015.16;6281282;22;20095;-77
2022/12/05 08:13:08;;;;;;;24.40;13.13;;;;;;;4.05;100.00;102018.19;6281341;22;20017;-76
2022/12/05 08:15:35;;;;;;;23.85;13.40;;;;;;;4.05;100.00;102018.94;6281029;22;20092;-76
2022/12/05 08:18:02;;;;;;;19.50;12.85;;;;;;;4.07;100.00;102026.50;6281270;22;20013;-76
2022/12/05 08:20:29;;;;;;;23.23;13.75;;;;;;;4.08;100.00;102025.38;6253627;22;20449;-77
2022/12/05 08:22:56;;;;;;;24.13;13.70;;;;;;;4.09;100.00;102025.00;6280719;22;20434;-77
2022/12/05 08:25:22;;;;;;;21.40;12.93;;;;;;;4.10;100.00;102031.03;6279601;22;20027;-77
2022/12/05 08:27:49;;;;;;;23.92;13.63;;;;;;;4.11;100.00;102027.28;6281369;22;20016;-76
2022/12/05 08:30:16;;;;;;;22.77;13.40;;;;;;;4.13;100.00;102032.94;6281451;22;20016;-77
2022/12/05 08:32:42;;;;;;;21.35;12.90;;;;;;;4.15;100.00;102035.97;6280869;22;20055;-77
2022/12/05 08:35:09;;;;;;;26.15;12.80;;;;;;;4.16;100.00;102034.84;6253963;22;20449;-78
2022/12/05 08:37:35;;;;;;;20.50;12.68;;;;;;;4.17;100.00;102036.38;6280489;22;20406;-77
2022/12/05 08:40:03;;;;;;;23.65;13.52;;;;;;;4.18;100.00;102033.38;6281502;22;20448;-79
2022/12/05 08:42:29;;;;;;;18.80;12.68;;;;;;;4.19;100.00;102042.81;6253714;22;20048;-78
2022/12/05 08:44:55;;;;;;;22.17;13.40;;;;;;;4.20;100.00;102035.66;6253740;22;20029;-78
2022/12/05 08:47:22;;;;;;;19.80;12.27;;;;;;;4.22;100.00;102038.69;6281140;22;20019;-77
2022/12/05 08:49:49;;;;;;;22.40;12.65;;;;;;;4.23;100.00;102037.56;6253842;22;20008;-77
2022/12/05 08:52:15;;;;;;;22.60;12.98;;;;;;;4.24;100.00;102042.47;6252435;22;20019;-77
2022/12/05 08:54:42;;;;;;;20.63;12.05;;;;;;;4.26;100.00;102040.22;6280828;22;20457;-77
2022/12/05 08:57:08;;;;;;;19.13;12.93;;;;;;;4.27;100.00;102041.75;6281428;22;20046;-77
2022/12/05 08:59:34;;;;;;;17.98;12.25;;;;;;;4.27;100.00;102044.38;6280866;22;20047;-79
2022/12/05 09:02:01;;;;;;;19.35;11.85;;;;;;;4.29;100.00;102049.28;6281220;22;20480;-77
2022/12/05 09:04:27;;;;;;;21.83;12.20;;;;;;;4.30;100.00;102051.56;6280781;22;20049;-76
2022/12/05 09:06:54;;;;;;;17.67;11.95;;;;;;;4.31;100.00;102055.72;6280765;22;20016;-76
2022/12/05 09:09:20;;;;;;;21.50;11.70;;;;;;;4.32;100.00;102059.88;6280863;22;20020;-77
2022/12/05 09:11:49;;;;;;;16.45;11.40;;;;;;;4.33;100.00;102052.72;6280918;22;20019;-75
2022/12/05 09:14:16;;;;;;;18.45;11.98;;;;;;;4.34;100.00;102057.63;6281019;22;20030;-76
2022/12/05 09:16:45;;;;;;;16.95;11.70;;;;;;;4.36;100.00;102059.91;6279031;22;20020;-75
2022/12/05 09:19:15;;;;;;;17.80;11.82;;;;;;;4.37;100.00;102058.03;6228451;22;20020;-75
2022/12/05 09:21:42;;;;;;;15.27;10.15;;;;;;;4.37;100.00;102061.41;6253203;22;20024;-75
2022/12/05 09:24:10;;;;;;;15.38;9.95;;;;;;;4.39;100.00;102053.91;6281204;22;20020;-76
2022/12/05 09:26:38;;;;;;;15.85;10.70;;;;;;;4.41;100.00;102056.16;6253051;22;20052;-78
2022/12/05 09:29:04;;;;;;;13.10;9.98;;;;;;;4.43;100.00;102061.81;6254111;22;20023;-78
2022/12/05 09:31:35;;;;;;;12.80;9.73;;;;;;;4.43;100.00;102059.94;6280686;22;20008;-78
2022/12/05 09:34:02;;;;;;;12.48;9.63;;;;;;;4.44;100.00;102060.69;6280272;22;20103;-76
2022/12/05 09:36:30;;;;;;;15.45;10.30;;;;;;;4.45;100.00;102064.84;6280228;22;20012;-78
2022/12/05 09:39:03;;;;;;;12.57;9.60;;;;;;;4.47;100.00;102071.28;6280835;22;20448;-78
2022/12/05 09:45:03;;;;;;;10.85;8.60;;;;;;;4.49;100.00;102074.31;6252869;22;20103;-76
2022/12/05 09:47:46;;;;;;;13.27;8.98;;;;;;;4.50;100.00;102075.81;6253272;22;20446;-78
2022/12/05 09:50:21;;;;;;;12.85;8.85;;;;;;;4.52;100.00;102070.19;6280156;22;20421;-78
2022/12/05 09:53:12;;;;;;;12.23;9.13;;;;;;;4.53;100.00;102077.72;6280777;22;20012;-77
2022/12/05 09:55:44;;;;;;;11.05;8.00;;;;;;;4.54;100.00;102076.59;6280539;22;20020;-78
2022/12/05 09:58:20;;;;;;;13.02;9.02;;;;;;;4.56;100.00;102070.97;6280891;22;20943;-78
2022/12/05 10:00:50;;;;;;;10.85;8.75;;;;;;;4.56;100.00;102081.50;6280267;22;20083;-78
2022/12/05 10:03:42;;;;;;;12.30;9.00;;;;;;;4.57;100.00;102075.13;6280131;22;20011;-81
2022/12/05 10:06:09;;;;;;;;;;;;;;;4.59;100.00;102083.44;6254091;22;20335;-82
2022/12/05 10:08:48;;;;;;;11.27;8.55;;;;;;;4.59;100.00;102073.63;6228789;22;19919;-83
2022/12/05 10:11:36;;;;;;;12.50;8.90;;;;;;;4.60;100.00;102071.75;6283721;22;20012;-80
2022/12/05 10:14:20;;;;;;;13.27;8.60;;;;;;;4.61;100.00;102081.94;6281322;22;20020;-82
2022/12/05 10:16:55;;;;;;;13.02;9.15;;;;;;;4.63;100.00;102079.69;6253287;22;20027;-82
2022/12/05 10:19:28;;;;;;;10.82;8.70;;;;;;;4.65;100.00;102079.31;6280304;22;20013;-82
2022/12/05 10:22:08;;;;;;;11.57;9.05;;;;;;;4.65;100.00;102076.69;6280590;22;20465;-82
2022/12/05 10:24:41;;;;;;;15.55;8.50;;;;;;;4.67;100.00;102077.09;6280262;22;20020;-79
2022/12/05 10:27:18;;;;;;;10.55;8.75;;;;;;;4.67;100.00;102072.56;6253604;22;20023;-80
2022/12/05 10:30:01;;;;;;;12.00;8.60;;;;;;;4.69;100.00;102077.47;6253010;22;20012;-80
2022/12/05 10:32:35;;;;;;;10.18;7.30;;;;;;;4.69;100.00;102072.97;6279531;22;20031;-81
2022/12/05 10:35:20;;;;;;;9.60;8.05;;;;;;;4.72;100.00;102073.34;6280503;22;20070;-78
2022/12/05 10:37:51;;;;;;;9.95;8.10;;;;;;;4.72;100.00;102068.84;6280129;22;20066;-79
2022/12/05 10:40:18;;;;;;;10.07;7.22;;;;;;;4.74;100.00;102071.88;6253341;22;20389;-79
2022/12/05 10:42:46;;;;;;;8.68;7.78;;;;;;;4.77;100.00;102068.50;6279960;22;20013;-82
2022/12/05 10:45:17;;;;;;;8.05;6.93;;;;;;;4.77;100.00;102067.75;6280031;22;20018;-82
2022/12/05 10:47:44;;;;;;;8.25;6.45;;;;;;;4.80;100.00;102069.66;6279707;22;20028;-78
2022/12/05 10:50:28;;;;;;;9.68;6.45;;;;;;;4.81;100.00;102069.25;6280107;22;20489;-80
2022/12/05 10:52:57;;;;;;;5.95;5.45;;;;;;;4.82;100.00;102062.84;6280415;22;20357;-79
2022/12/05 10:55:30;;;;;;;6.25;5.47;;;;;;;4.85;100.00;102064.75;6252292;22;20023;-80
2022/12/05 10:58:22;;;;;;;5.40;4.80;;;;;;;4.88;100.00;102063.25;6280179;22;20020;-80
2022/12/05 11:00:52;;;;;;;6.07;4.40;;;;;;;4.88;100.00;102069.31;6252420;22;20020;-80
2022/12/05 11:03:28;;;;;;;4.90;4.40;;;;;;;4.89;100.00;102064.78;6229672;22;20012;-79
2022/12/05 11:05:59;;;;;;;4.57;4.00;;;;;;;4.91;100.00;102060.66;6280155;22;20509;-77
2022/12/05 11:08:30;;;;;;;4.15;3.75;;;;;;;4.92;100.00;102056.88;6279886;22;20442;-77
2022/12/05 11:11:20;;;;;;;4.07;3.67;;;;;;;4.91;100.00;102059.91;6257683;22;20017;-77
2022/12/05 11:14:23;;;;;;;4.97;4.18;;;;;;;4.91;100.00;102062.53;6280140;22;20016;-77
2022/12/05 11:16:56;;;;;;;4.78;4.38;;;;;;;4.92;100.00;102070.09;6256919;22;20038;-79
2022/12/05 11:19:27;;;;;;;4.82;3.97;;;;;;;4.90;100.00;102061.78;6254182;22;20024;-77
2022/12/05 11:21:54;;;;;;;5.13;4.40;;;;;;;4.89;100.00;102062.91;6281720;22;20323;-76
2022/12/05 11:24:24;;;;;;;5.45;4.40;;;;;;;4.90;100.00;102063.66;6281885;22;20071;-79
2022/12/05 11:26:50;;;;;;;7.70;4.38;;;;;;;4.91;100.00;102058.00;6254621;22;20012;-75
2022/12/05 11:29:37;;;;;;;6.72;4.50;;;;;;;4.95;100.00;102056.16;6254115;22;20028;-75
2022/12/05 11:32:16;;;;;;;5.28;4.78;;;;;;;4.95;100.00;102058.78;6255411;22;20016;-77
2022/12/05 11:35:04;;;;;;;4.25;3.88;;;;;;;4.97;100.00;102059.19;6281044;22;20072;-78
2022/12/05 11:37:37;;;;;;;4.43;4.05;;;;;;;4.97;100.00;102061.06;6254095;22;20013;-78
2022/12/05 11:40:14;;;;;;;4.53;3.85;;;;;;;4.99;100.00;102056.19;6254142;22;20070;-78
2022/12/05 11:42:47;;;;;;;7.18;4.05;;;;;;;5.02;100.00;102052.81;6254408;22;20490;-77
2022/12/05 11:45:48;;;;;;;7.50;4.47;;;;;;;5.01;100.00;102057.31;6253388;22;20070;-77